sensor_id;sensor_type;location;lat;lon;timestamp;P1;durP1;ratioP1;P2;durP2;ratioP2
34471;SDS011;20710;49.976;19.836;2023-12-04T00:00:06;33.20;;;14.70;;
34471;SDS011;20710;49.976;19.836;2023-12-04T00:06:33;36.70;;;16.20;;
34471;SDS011;20710;49.976;19.836;2023-12-04T00:12:36;34.50;;;14.70;;
34471;SDS011;20710;49.976;19.836;2023-12-04T00:18:38;35.00;;;16.10;;
34471;SDS011;20710;49.976;19.836;2023-12-04T00:24:40;43.10;;;19.00;;
34471;SDS011;20710;49.976;19.836;2023-12-04T00:30:44;44.20;;;18.70;;
34471;SDS011;20710;49.976;19.836;2023-12-04T00:36:46;40.70;;;18.20;;
34471;SDS011;20710;49.976;19.836;2023-12-04T00:42:49;40.30;;;17.70;;
34471;SDS011;20710;49.976;19.836;2023-12-04T00:48:51;43.30;;;18.80;;
34471;SDS011;20710;49.976;19.836;2023-12-04T00:54:53;38.10;;;19.50;;
34471;SDS011;20710;49.976;19.836;2023-12-04T01:00:56;47.20;;;19.90;;
34471;SDS011;20710;49.976;19.836;2023-12-04T01:06:58;37.30;;;18.10;;
34471;SDS011;20710;49.976;19.836;2023-12-04T01:13:01;37.00;;;16.60;;
34471;SDS011;20710;49.976;19.836;2023-12-04T01:19:03;39.60;;;17.50;;
34471;SDS011;20710;49.976;19.836;2023-12-04T01:25:05;45.10;;;18.80;;
34471;SDS011;20710;49.976;19.836;2023-12-04T01:31:08;35.40;;;17.50;;
34471;SDS011;20710;49.976;19.836;2023-12-04T01:37:10;37.90;;;17.60;;
34471;SDS011;20710;49.976;19.836;2023-12-04T01:43:13;38.10;;;17.20;;
34471;SDS011;20710;49.976;19.836;2023-12-04T01:49:16;33.50;;;15.40;;
34471;SDS011;20710;49.976;19.836;2023-12-04T01:55:18;35.90;;;16.40;;
34471;SDS011;20710;49.976;19.836;2023-12-04T02:01:20;30.40;;;12.70;;
34471;SDS011;20710;49.976;19.836;2023-12-04T02:07:23;26.40;;;13.80;;
34471;SDS011;20710;49.976;19.836;2023-12-04T02:13:25;24.00;;;10.70;;
34471;SDS011;20710;49.976;19.836;2023-12-04T02:19:27;23.30;;;11.90;;
34471;SDS011;20710;49.976;19.836;2023-12-04T02:25:30;25.40;;;10.40;;
34471;SDS011;20710;49.976;19.836;2023-12-04T02:31:42;21.60;;;10.30;;
34471;SDS011;20710;49.976;19.836;2023-12-04T02:37:46;24.70;;;10.50;;
34471;SDS011;20710;49.976;19.836;2023-12-04T02:43:49;26.40;;;12.10;;
34471;SDS011;20710;49.976;19.836;2023-12-04T02:49:51;29.60;;;12.60;;
34471;SDS011;20710;49.976;19.836;2023-12-04T02:55:53;26.90;;;13.00;;
34471;SDS011;20710;49.976;19.836;2023-12-04T03:01:55;30.00;;;15.10;;
34471;SDS011;20710;49.976;19.836;2023-12-04T03:07:57;36.00;;;16.20;;
34471;SDS011;20710;49.976;19.836;2023-12-04T03:14:00;30.50;;;15.00;;
34471;SDS011;20710;49.976;19.836;2023-12-04T03:20:03;35.90;;;14.20;;
34471;SDS011;20710;49.976;19.836;2023-12-04T03:26:06;29.90;;;14.30;;
34471;SDS011;20710;49.976;19.836;2023-12-04T03:32:08;31.90;;;14.60;;
34471;SDS011;20710;49.976;19.836;2023-12-04T03:38:10;30.40;;;15.10;;
34471;SDS011;20710;49.976;19.836;2023-12-04T03:44:13;30.90;;;15.00;;
34471;SDS011;20710;49.976;19.836;2023-12-04T03:50:15;28.60;;;14.60;;
34471;SDS011;20710;49.976;19.836;2023-12-04T03:56:17;34.20;;;17.00;;
34471;SDS011;20710;49.976;19.836;2023-12-04T04:02:19;35.40;;;15.50;;
34471;SDS011;20710;49.976;19.836;2023-12-04T04:08:21;33.40;;;16.10;;
34471;SDS011;20710;49.976;19.836;2023-12-04T04:14:24;31.50;;;16.90;;
34471;SDS011;20710;49.976;19.836;2023-12-04T04:20:26;36.30;;;15.20;;
34471;SDS011;20710;49.976;19.836;2023-12-04T04:26:28;29.40;;;14.10;;
34471;SDS011;20710;49.976;19.836;2023-12-04T04:32:30;35.50;;;17.00;;
34471;SDS011;20710;49.976;19.836;2023-12-04T04:38:32;31.80;;;15.00;;
34471;SDS011;20710;49.976;19.836;2023-12-04T04:44:34;32.60;;;15.40;;
34471;SDS011;20710;49.976;19.836;2023-12-04T04:50:36;36.20;;;16.70;;
34471;SDS011;20710;49.976;19.836;2023-12-04T04:56:38;34.50;;;15.80;;
34471;SDS011;20710;49.976;19.836;2023-12-04T05:02:40;29.80;;;16.20;;
34471;SDS011;20710;49.976;19.836;2023-12-04T05:08:42;38.00;;;17.10;;
34471;SDS011;20710;49.976;19.836;2023-12-04T05:14:44;36.00;;;17.90;;
34471;SDS011;20710;49.976;19.836;2023-12-04T05:20:46;40.50;;;18.50;;
34471;SDS011;20710;49.976;19.836;2023-12-04T05:26:48;37.90;;;20.10;;
34471;SDS011;20710;49.976;19.836;2023-12-04T05:32:50;42.70;;;18.60;;
34471;SDS011;20710;49.976;19.836;2023-12-04T05:38:52;40.30;;;19.30;;
34471;SDS011;20710;49.976;19.836;2023-12-04T05:44:55;34.10;;;16.20;;
34471;SDS011;20710;49.976;19.836;2023-12-04T05:50:59;40.50;;;19.70;;
34471;SDS011;20710;49.976;19.836;2023-12-04T05:57:01;37.70;;;17.30;;
34471;SDS011;20710;49.976;19.836;2023-12-04T06:03:03;43.00;;;19.60;;
34471;SDS011;20710;49.976;19.836;2023-12-04T06:09:05;42.30;;;21.30;;
34471;SDS011;20710;49.976;19.836;2023-12-04T06:15:08;50.40;;;24.60;;
34471;SDS011;20710;49.976;19.836;2023-12-04T06:21:11;41.50;;;21.10;;
34471;SDS011;20710;49.976;19.836;2023-12-04T06:27:17;44.00;;;20.10;;
34471;SDS011;20710;49.976;19.836;2023-12-04T06:33:22;34.10;;;19.10;;
34471;SDS011;20710;49.976;19.836;2023-12-04T06:39:24;32.20;;;16.80;;
34471;SDS011;20710;49.976;19.836;2023-12-04T06:45:27;35.10;;;16.50;;
34471;SDS011;20710;49.976;19.836;2023-12-04T06:51:29;32.60;;;15.70;;
34471;SDS011;20710;49.976;19.836;2023-12-04T06:57:31;37.30;;;18.40;;
34471;SDS011;20710;49.976;19.836;2023-12-04T07:03:37;63.80;;;27.60;;
34471;SDS011;20710;49.976;19.836;2023-12-04T07:09:39;51.20;;;23.60;;
34471;SDS011;20710;49.976;19.836;2023-12-04T07:15:41;44.60;;;22.30;;
34471;SDS011;20710;49.976;19.836;2023-12-04T07:21:43;53.50;;;26.00;;
34471;SDS011;20710;49.976;19.836;2023-12-04T07:27:46;50.30;;;25.00;;
34471;SDS011;20710;49.976;19.836;2023-12-04T07:33:47;59.90;;;27.80;;
34471;SDS011;20710;49.976;19.836;2023-12-04T07:39:49;50.50;;;25.60;;
34471;SDS011;20710;49.976;19.836;2023-12-04T07:45:52;55.10;;;26.50;;
34471;SDS011;20710;49.976;19.836;2023-12-04T07:51:55;46.70;;;23.40;;
34471;SDS011;20710;49.976;19.836;2023-12-04T07:57:57;71.70;;;33.00;;
34471;SDS011;20710;49.976;19.836;2023-12-04T08:03:59;59.30;;;28.10;;
34471;SDS011;20710;49.976;19.836;2023-12-04T08:10:01;62.40;;;28.60;;
34471;SDS011;20710;49.976;19.836;2023-12-04T08:16:04;57.40;;;26.40;;
34471;SDS011;20710;49.976;19.836;2023-12-04T08:22:06;62.50;;;27.70;;
34471;SDS011;20710;49.976;19.836;2023-12-04T08:28:09;55.50;;;28.40;;
34471;SDS011;20710;49.976;19.836;2023-12-04T08:34:11;59.50;;;26.00;;
34471;SDS011;20710;49.976;19.836;2023-12-04T08:40:13;43.80;;;21.80;;
34471;SDS011;20710;49.976;19.836;2023-12-04T08:46:15;44.70;;;21.30;;
34471;SDS011;20710;49.976;19.836;2023-12-04T08:52:25;26.40;;;12.00;;
34471;SDS011;20710;49.976;19.836;2023-12-04T08:58:28;26.60;;;14.40;;
34471;SDS011;20710;49.976;19.836;2023-12-04T09:04:30;25.40;;;11.40;;
34471;SDS011;20710;49.976;19.836;2023-12-04T09:10:33;18.60;;;11.80;;
34471;SDS011;20710;49.976;19.836;2023-12-04T09:16:36;16.60;;;10.60;;
34471;SDS011;20710;49.976;19.836;2023-12-04T09:22:43;20.60;;;11.60;;
34471;SDS011;20710;49.976;19.836;2023-12-04T09:29:01;14.60;;;9.20;;
34471;SDS011;20710;49.976;19.836;2023-12-04T09:41:34;16.10;;;9.90;;
34471;SDS011;20710;49.976;19.836;2023-12-04T09:47:36;18.00;;;9.90;;
34471;SDS011;20710;49.976;19.836;2023-12-04T09:53:38;17.30;;;9.90;;
34471;SDS011;20710;49.976;19.836;2023-12-04T09:59:43;13.20;;;7.70;;
34471;SDS011;20710;49.976;19.836;2023-12-04T10:05:48;14.60;;;8.80;;
34471;SDS011;20710;49.976;19.836;2023-12-04T10:11:55;18.90;;;10.00;;
34471;SDS011;20710;49.976;19.836;2023-12-04T10:17:58;15.80;;;8.50;;
34471;SDS011;20710;49.976;19.836;2023-12-04T10:24:07;19.40;;;11.30;;
34471;SDS011;20710;49.976;19.836;2023-12-04T10:30:28;15.30;;;10.50;;
34471;SDS011;20710;49.976;19.836;2023-12-04T10:36:56;17.40;;;10.20;;
34471;SDS011;20710;49.976;19.836;2023-12-04T10:49:11;19.10;;;11.00;;
34471;SDS011;20710;49.976;19.836;2023-12-04T10:55:16;18.90;;;10.10;;
34471;SDS011;20710;49.976;19.836;2023-12-04T11:01:22;17.00;;;10.10;;
34471;SDS011;20710;49.976;19.836;2023-12-04T11:07:26;20.40;;;10.10;;
34471;SDS011;20710;49.976;19.836;2023-12-04T11:13:30;16.90;;;9.30;;
34471;SDS011;20710;49.976;19.836;2023-12-04T11:20:07;20.60;;;10.30;;
34471;SDS011;20710;49.976;19.836;2023-12-04T11:26:04;21.40;;;10.00;;
34471;SDS011;20710;49.976;19.836;2023-12-04T11:32:07;18.90;;;10.20;;
34471;SDS011;20710;49.976;19.836;2023-12-04T11:38:12;17.60;;;9.80;;
34471;SDS011;20710;49.976;19.836;2023-12-04T11:44:18;18.70;;;9.30;;
34471;SDS011;20710;49.976;19.836;2023-12-04T11:50:20;14.90;;;8.40;;
34471;SDS011;20710;49.976;19.836;2023-12-04T11:56:23;16.70;;;8.70;;
34471;SDS011;20710;49.976;19.836;2023-12-04T12:02:25;13.50;;;7.60;;
34471;SDS011;20710;49.976;19.836;2023-12-04T12:08:30;14.90;;;7.70;;
34471;SDS011;20710;49.976;19.836;2023-12-04T12:14:32;14.20;;;8.50;;
34471;SDS011;20710;49.976;19.836;2023-12-04T12:20:38;21.10;;;10.00;;
34471;SDS011;20710;49.976;19.836;2023-12-04T12:26:41;20.50;;;11.10;;
34471;SDS011;20710;49.976;19.836;2023-12-04T12:32:43;22.40;;;11.40;;
34471;SDS011;20710;49.976;19.836;2023-12-04T12:38:45;32.00;;;16.20;;
34471;SDS011;20710;49.976;19.836;2023-12-04T12:50:54;25.10;;;11.50;;
34471;SDS011;20710;49.976;19.836;2023-12-04T12:56:56;28.70;;;14.00;;
34471;SDS011;20710;49.976;19.836;2023-12-04T13:02:59;25.20;;;12.80;;
34471;SDS011;20710;49.976;19.836;2023-12-04T13:09:01;27.60;;;13.50;;
34471;SDS011;20710;49.976;19.836;2023-12-04T13:15:06;27.70;;;14.70;;
34471;SDS011;20710;49.976;19.836;2023-12-04T13:21:09;31.80;;;14.30;;
34471;SDS011;20710;49.976;19.836;2023-12-04T13:27:13;33.50;;;15.90;;
34471;SDS011;20710;49.976;19.836;2023-12-04T13:33:15;33.00;;;16.60;;
34471;SDS011;20710;49.976;19.836;2023-12-04T13:39:17;29.70;;;14.00;;
34471;SDS011;20710;49.976;19.836;2023-12-04T13:45:25;28.80;;;16.00;;
34471;SDS011;20710;49.976;19.836;2023-12-04T13:51:27;32.40;;;16.70;;
34471;SDS011;20710;49.976;19.836;2023-12-04T13:57:30;31.60;;;16.30;;
34471;SDS011;20710;49.976;19.836;2023-12-04T14:03:35;44.10;;;18.20;;
34471;SDS011;20710;49.976;19.836;2023-12-04T14:09:38;34.00;;;19.10;;
34471;SDS011;20710;49.976;19.836;2023-12-04T14:15:43;39.70;;;20.70;;
34471;SDS011;20710;49.976;19.836;2023-12-04T14:21:45;47.00;;;22.80;;
34471;SDS011;20710;49.976;19.836;2023-12-04T14:27:49;54.60;;;28.70;;
34471;SDS011;20710;49.976;19.836;2023-12-04T14:33:52;41.40;;;22.40;;
34471;SDS011;20710;49.976;19.836;2023-12-04T14:39:55;61.10;;;29.10;;
34471;SDS011;20710;49.976;19.836;2023-12-04T14:45:57;64.60;;;27.70;;
34471;SDS011;20710;49.976;19.836;2023-12-04T14:52:00;68.90;;;28.30;;
34471;SDS011;20710;49.976;19.836;2023-12-04T14:58:02;83.60;;;30.30;;
34471;SDS011;20710;49.976;19.836;2023-12-04T15:04:43;86.00;;;33.60;;
34471;SDS011;20710;49.976;19.836;2023-12-04T15:11:18;58.60;;;25.60;;
34471;SDS011;20710;49.976;19.836;2023-12-04T15:17:38;54.20;;;24.60;;
34471;SDS011;20710;49.976;19.836;2023-12-04T15:23:52;74.20;;;31.00;;
34471;SDS011;20710;49.976;19.836;2023-12-04T15:29:54;62.50;;;28.70;;
34471;SDS011;20710;49.976;19.836;2023-12-04T15:35:57;85.00;;;37.00;;
34471;SDS011;20710;49.976;19.836;2023-12-04T15:41:59;78.20;;;31.60;;
34471;SDS011;20710;49.976;19.836;2023-12-04T15:48:02;68.30;;;30.90;;
34471;SDS011;20710;49.976;19.836;2023-12-04T15:54:04;65.90;;;30.10;;
34471;SDS011;20710;49.976;19.836;2023-12-04T16:00:07;67.40;;;32.20;;
34471;SDS011;20710;49.976;19.836;2023-12-04T16:06:14;71.00;;;30.10;;
34471;SDS011;20710;49.976;19.836;2023-12-04T16:12:17;90.40;;;36.70;;
34471;SDS011;20710;49.976;19.836;2023-12-04T16:18:19;57.30;;;27.30;;
34471;SDS011;20710;49.976;19.836;2023-12-04T16:24:22;74.10;;;31.70;;
34471;SDS011;20710;49.976;19.836;2023-12-04T16:30:25;68.80;;;32.80;;
34471;SDS011;20710;49.976;19.836;2023-12-04T16:36:27;74.60;;;32.90;;
34471;SDS011;20710;49.976;19.836;2023-12-04T16:42:31;68.70;;;33.70;;
34471;SDS011;20710;49.976;19.836;2023-12-04T16:48:36;74.90;;;34.40;;
34471;SDS011;20710;49.976;19.836;2023-12-04T16:54:39;76.00;;;33.00;;
34471;SDS011;20710;49.976;19.836;2023-12-04T17:00:44;68.40;;;31.80;;
34471;SDS011;20710;49.976;19.836;2023-12-04T17:06:47;93.80;;;30.10;;
34471;SDS011;20710;49.976;19.836;2023-12-04T17:12:49;69.40;;;30.20;;
34471;SDS011;20710;49.976;19.836;2023-12-04T17:18:52;79.40;;;33.70;;
34471;SDS011;20710;49.976;19.836;2023-12-04T17:24:54;76.90;;;33.20;;
34471;SDS011;20710;49.976;19.836;2023-12-04T17:30:57;74.20;;;34.20;;
34471;SDS011;20710;49.976;19.836;2023-12-04T17:36:59;83.60;;;35.10;;
34471;SDS011;20710;49.976;19.836;2023-12-04T17:43:02;80.80;;;33.90;;
34471;SDS011;20710;49.976;19.836;2023-12-04T17:49:04;78.80;;;33.10;;
34471;SDS011;20710;49.976;19.836;2023-12-04T17:55:07;76.50;;;35.10;;
34471;SDS011;20710;49.976;19.836;2023-12-04T18:01:10;73.50;;;32.90;;
34471;SDS011;20710;49.976;19.836;2023-12-04T18:07:12;86.40;;;35.30;;
34471;SDS011;20710;49.976;19.836;2023-12-04T18:13:15;83.80;;;33.70;;
34471;SDS011;20710;49.976;19.836;2023-12-04T18:19:17;87.30;;;38.50;;
34471;SDS011;20710;49.976;19.836;2023-12-04T18:25:20;87.60;;;38.60;;
34471;SDS011;20710;49.976;19.836;2023-12-04T18:31:23;94.50;;;42.50;;
34471;SDS011;20710;49.976;19.836;2023-12-04T18:43:37;72.50;;;33.60;;
34471;SDS011;20710;49.976;19.836;2023-12-04T18:49:39;87.40;;;38.00;;
34471;SDS011;20710;49.976;19.836;2023-12-04T18:55:42;94.50;;;39.80;;
34471;SDS011;20710;49.976;19.836;2023-12-04T19:01:46;78.70;;;35.20;;
34471;SDS011;20710;49.976;19.836;2023-12-04T19:07:48;80.90;;;34.90;;
34471;SDS011;20710;49.976;19.836;2023-12-04T19:13:51;116.40;;;50.80;;
34471;SDS011;20710;49.976;19.836;2023-12-04T19:19:53;113.70;;;52.80;;
34471;SDS011;20710;49.976;19.836;2023-12-04T19:25:58;103.10;;;43.20;;
34471;SDS011;20710;49.976;19.836;2023-12-04T19:32:00;126.80;;;53.20;;
34471;SDS011;20710;49.976;19.836;2023-12-04T19:38:02;80.00;;;37.40;;
34471;SDS011;20710;49.976;19.836;2023-12-04T19:44:04;79.20;;;36.70;;
34471;SDS011;20710;49.976;19.836;2023-12-04T19:50:07;85.10;;;38.30;;
34471;SDS011;20710;49.976;19.836;2023-12-04T19:56:13;84.60;;;38.90;;
34471;SDS011;20710;49.976;19.836;2023-12-04T20:02:15;86.20;;;39.30;;
34471;SDS011;20710;49.976;19.836;2023-12-04T20:08:18;85.80;;;38.80;;
34471;SDS011;20710;49.976;19.836;2023-12-04T20:14:21;79.60;;;35.70;;
34471;SDS011;20710;49.976;19.836;2023-12-04T20:20:24;103.80;;;44.50;;
34471;SDS011;20710;49.976;19.836;2023-12-04T20:26:26;85.60;;;40.50;;
34471;SDS011;20710;49.976;19.836;2023-12-04T20:32:29;88.40;;;39.60;;
34471;SDS011;20710;49.976;19.836;2023-12-04T20:38:32;97.10;;;41.10;;
34471;SDS011;20710;49.976;19.836;2023-12-04T20:44:36;91.60;;;39.00;;
34471;SDS011;20710;49.976;19.836;2023-12-04T20:50:46;88.90;;;42.20;;
34471;SDS011;20710;49.976;19.836;2023-12-04T20:56:48;93.00;;;43.40;;
34471;SDS011;20710;49.976;19.836;2023-12-04T21:02:50;108.60;;;46.20;;
34471;SDS011;20710;49.976;19.836;2023-12-04T21:08:55;132.20;;;52.80;;
34471;SDS011;20710;49.976;19.836;2023-12-04T21:14:59;117.70;;;48.40;;
34471;SDS011;20710;49.976;19.836;2023-12-04T21:21:06;104.40;;;46.70;;
34471;SDS011;20710;49.976;19.836;2023-12-04T21:27:08;103.50;;;43.40;;
34471;SDS011;20710;49.976;19.836;2023-12-04T21:33:10;101.00;;;45.40;;
34471;SDS011;20710;49.976;19.836;2023-12-04T21:39:12;154.40;;;65.50;;
34471;SDS011;20710;49.976;19.836;2023-12-04T21:45:15;97.30;;;43.10;;
34471;SDS011;20710;49.976;19.836;2023-12-04T21:51:17;102.20;;;42.20;;
34471;SDS011;20710;49.976;19.836;2023-12-04T21:57:19;94.30;;;37.10;;
34471;SDS011;20710;49.976;19.836;2023-12-04T22:03:21;97.70;;;39.10;;
34471;SDS011;20710;49.976;19.836;2023-12-04T22:09:24;107.70;;;43.40;;
34471;SDS011;20710;49.976;19.836;2023-12-04T22:15:26;95.10;;;42.90;;
34471;SDS011;20710;49.976;19.836;2023-12-04T22:21:29;92.20;;;41.60;;
34471;SDS011;20710;49.976;19.836;2023-12-04T22:27:31;93.40;;;40.30;;
34471;SDS011;20710;49.976;19.836;2023-12-04T22:33:33;97.20;;;40.30;;
34471;SDS011;20710;49.976;19.836;2023-12-04T22:39:46;96.40;;;41.70;;
34471;SDS011;20710;49.976;19.836;2023-12-04T22:45:53;102.20;;;44.60;;
34471;SDS011;20710;49.976;19.836;2023-12-04T22:52:14;97.60;;;44.00;;
34471;SDS011;20710;49.976;19.836;2023-12-04T22:58:16;101.70;;;44.50;;
34471;SDS011;20710;49.976;19.836;2023-12-04T23:04:18;98.20;;;43.00;;
34471;SDS011;20710;49.976;19.836;2023-12-04T23:10:20;107.30;;;46.40;;
34471;SDS011;20710;49.976;19.836;2023-12-04T23:16:25;101.40;;;43.80;;
34471;SDS011;20710;49.976;19.836;2023-12-04T23:22:28;105.60;;;43.20;;
34471;SDS011;20710;49.976;19.836;2023-12-04T23:28:30;101.40;;;44.40;;
34471;SDS011;20710;49.976;19.836;2023-12-04T23:34:33;96.30;;;41.10;;
34471;SDS011;20710;49.976;19.836;2023-12-04T23:47:04;92.40;;;42.40;;
34471;SDS011;20710;49.976;19.836;2023-12-04T23:53:07;96.60;;;41.50;;
34471;SDS011;20710;49.976;19.836;2023-12-04T23:59:09;97.60;;;42.50;;
